Aeroporto :
LOGIN :

Iscrizione | Disclaimer

   EN    FR    IT 

 










Sommario :    VFR   VFR Marginale   IFR   IFR Intensivo   IFR Molto Intensivo
Visibilità : 
Base nubi : 
>= 8 km
>= 3000ft
5 / 8 km
1000 / 3000 ft
1500m / 5 km
500 / 1000 ft
800 / 1500m
200 / 500 ft
< 800m
< 200 ft
Simboli :   Temporali  Nebbia  Neve Forte  Precipitazioni Forti  Vento > 20 kt
SIGMETs :   Varie  Temporali  Ghiacco  Turbolenza  Onda orograficha  Ceneri Vulcaniche






- Altitudine del aeroporto : 265 ft
- Codice IATA : BJY


LYBT - Batajnica Air Base

ULTIMO METAR :
  • 161130Z 15013KT 110V200 CAVOK 39/15 Q1010 NOSIG

METARs OBSOLETI :
  • 161100Z 14016KT 110V170 CAVOK 38/15 Q1011 NOSIG
  • 161030Z 15016KT CAVOK 38/15 Q1011 NOSIG
  • 161000Z 15015KT 120V190 CAVOK 37/15 Q1011 NOSIG
  • 160930Z 15011KT 100V190 CAVOK 37/16 Q1011 NOSIG
  • 160900Z 11010KT 080V140 CAVOK 36/18 Q1011 NOSIG
  • 160830Z 12009KT 060V150 CAVOK 35/18 Q1011 NOSIG
  • 160800Z 11008KT 070V140 CAVOK 34/18 Q1012 NOSIG
  • 160730Z 11007KT 080V140 CAVOK 33/19 Q1012 NOSIG
  • 160700Z 11007KT 080V150 CAVOK 32/20 Q1012 NOSIG

TAF TAF LYBT
Valido dal 16 a 12 ore il 17 a 12 ore UTC


161100Z 1612/1712 14014KT CAVOK TX39/1613Z TN22/1703Z
BECMG 1616/1618 28004KT



MetMap, La meteo Aeronautica in un colpo d'occhio ! - Copyright ORBIFLY Dicembre 2007 - Disclaimer

ORBIFLY MET'MAP TEAM :

Programmazione e sviluppo : Alexandra Zaïnal
Concezione : Baudouin d'Aumeries
Supporto tecnico e logistico : Manuel Goepfert
Aiuto : Marc-Olivier Méhu
Aiuto per la traduzione : Arnaldo La Scala




FONTI E CREDITI :

   NOAA